createdAt,value
2019-04-16T00:03:05.245Z,0.29
2019-04-16T00:08:27.215Z,0.63
2019-04-16T00:13:22.783Z,1.11
2019-04-16T00:18:31.596Z,0.30
2019-04-16T00:23:40.284Z,0.59
2019-04-16T00:28:50.464Z,0.66
2019-04-16T00:33:49.109Z,0.65
2019-04-16T00:38:57.869Z,0.21
2019-04-16T00:44:06.564Z,0.44
2019-04-16T00:49:16.296Z,0.13
2019-04-16T00:54:24.963Z,0.10
2019-04-16T00:59:34.113Z,0.20
2019-04-16T01:04:42.821Z,0.32
2019-04-16T01:09:51.796Z,0.20
2019-04-16T01:15:01.060Z,0.32
2019-04-16T01:20:12.660Z,0.23
2019-04-16T01:25:20.259Z,0.21
2019-04-16T01:30:27.131Z,0.21
2019-04-16T01:35:35.776Z,0.22
2019-04-16T01:40:47.245Z,0.30
2019-04-16T01:45:52.985Z,0.20
2019-04-16T01:51:02.903Z,0.18
2019-04-16T01:56:11.637Z,0.37
2019-04-16T02:01:20.321Z,0.24
2019-04-16T02:06:29.047Z,0.23
2019-04-16T02:11:38.889Z,0.16
2019-04-16T02:16:46.058Z,0.21
2019-04-16T02:21:55.103Z,0.24
2019-04-16T02:27:03.786Z,0.37
2019-04-16T02:32:12.527Z,0.25
2019-04-16T02:37:21.231Z,0.22
2019-04-16T02:42:32.137Z,0.25
2019-04-16T02:47:30.064Z,0.32
2019-04-16T02:52:38.852Z,0.22
2019-04-16T02:57:47.533Z,0.45
2019-04-16T03:02:56.473Z,0.81
2019-04-16T03:08:05.827Z,0.21
2019-04-16T03:13:14.321Z,0.23
2019-04-16T03:18:23.048Z,0.27
2019-04-16T03:23:36.485Z,0.19
2019-04-16T03:28:40.026Z,0.21
2019-04-16T03:33:50.742Z,0.23
2019-04-16T03:38:57.043Z,0.46
2019-04-16T03:44:06.640Z,0.22
2019-04-16T03:49:15.347Z,0.24
2019-04-16T03:54:24.862Z,0.23
2019-04-16T03:59:33.539Z,0.27
2019-04-16T04:04:42.539Z,0.28
2019-04-16T04:09:51.488Z,0.18
2019-04-16T04:14:59.841Z,0.22
2019-04-16T04:20:08.558Z,0.20
2019-04-16T04:25:17.737Z,0.20
2019-04-16T04:30:28.827Z,0.34
2019-04-16T04:35:35.202Z,0.40
2019-04-16T04:40:44.896Z,0.25
2019-04-16T04:45:53.020Z,0.31
2019-04-16T04:51:06.831Z,0.39
2019-04-16T04:56:10.701Z,0.92
2019-04-16T05:01:19.449Z,0.25
2019-04-16T05:06:28.216Z,0.21
2019-04-16T05:11:36.939Z,0.46
2019-04-16T05:16:46.593Z,0.35
2019-04-16T05:21:55.335Z,0.25
2019-04-16T05:27:05.489Z,0.31
2019-04-16T05:32:12.372Z,0.45
2019-04-16T05:37:22.112Z,0.29
2019-04-16T05:42:30.814Z,0.34
2019-04-16T05:47:40.353Z,0.50
2019-04-16T05:52:49.138Z,1.09
2019-04-16T05:57:58.859Z,0.37
2019-04-16T06:03:06.348Z,0.22
2019-04-16T06:08:15.166Z,0.60
2019-04-16T06:13:23.915Z,0.24
2019-04-16T06:18:36.743Z,0.44
2019-04-16T06:23:41.074Z,0.24
2019-04-16T06:28:55.165Z,0.41
2019-04-16T06:33:59.163Z,0.21
2019-04-16T06:39:07.972Z,0.26
2019-04-16T06:44:16.732Z,0.21
2019-04-16T06:49:25.658Z,0.20
2019-04-16T06:54:34.442Z,0.24
2019-04-16T06:59:43.177Z,0.28
2019-04-16T07:04:51.917Z,0.80
2019-04-16T07:11:07.487Z,0.35
2019-04-16T07:16:16.319Z,0.33
2019-04-16T07:21:24.856Z,0.26
2019-04-16T07:26:33.931Z,0.65
2019-04-16T07:31:41.828Z,1.90
2019-04-16T07:36:50.454Z,0.83
2019-04-16T07:42:09.436Z,0.48
2019-04-16T07:47:07.353Z,0.84
2019-04-16T07:52:16.081Z,0.96
2019-04-16T07:57:24.817Z,1.58
2019-04-16T08:02:33.542Z,1.38
2019-04-16T08:07:42.214Z,1.89
2019-04-16T08:12:50.971Z,0.31
2019-04-16T08:17:59.898Z,1.20
2019-04-16T08:23:08.392Z,3.13
2019-04-16T08:28:17.089Z,1.90
2019-04-16T08:33:28.509Z,0.81
2019-04-16T08:38:34.962Z,2.20
2019-04-16T08:43:42.255Z,1.96
2019-04-16T08:48:54.140Z,1.38
2019-04-16T08:53:59.161Z,1.09
2019-04-16T08:59:10.053Z,3.92
2019-04-16T09:04:16.197Z,1.88
2019-04-16T09:09:25.552Z,1.76
2019-04-16T09:14:33.041Z,3.05
2019-04-16T09:19:41.763Z,2.21
2019-04-16T09:24:50.487Z,0.98
2019-04-16T09:29:59.161Z,1.94
2019-04-16T09:35:11.026Z,1.08
2019-04-16T09:40:18.306Z,1.61
2019-04-16T09:45:25.057Z,1.40
2019-04-16T09:50:32.574Z,1.47
2019-04-16T09:55:41.307Z,1.89
2019-04-16T10:00:49.974Z,0.75
2019-04-16T10:05:58.719Z,0.90
2019-04-16T10:11:07.394Z,1.69
2019-04-16T10:16:16.143Z,0.93
2019-04-16T10:21:24.806Z,1.02
2019-04-16T10:26:33.542Z,1.01
2019-04-16T10:31:42.218Z,1.57
2019-04-16T10:36:50.973Z,0.77
2019-04-16T10:41:59.647Z,1.08
2019-04-16T10:47:08.783Z,1.34
2019-04-16T10:52:17.390Z,0.95
2019-04-16T10:57:26.081Z,1.87
2019-04-16T11:02:34.764Z,0.88
2019-04-16T11:07:43.477Z,1.10
2019-04-16T11:12:52.141Z,1.90
2019-04-16T11:18:00.878Z,2.36
2019-04-16T11:23:09.613Z,1.31
2019-04-16T11:28:18.351Z,1.71
2019-04-16T11:33:27.656Z,2.24
2019-04-16T11:38:35.271Z,0.79
2019-04-16T11:43:43.976Z,0.90
2019-04-16T11:48:52.694Z,0.90
2019-04-16T11:54:01.467Z,1.72
2019-04-16T11:59:10.155Z,0.56
2019-04-16T12:04:18.857Z,1.42
2019-04-16T12:09:27.677Z,3.61
2019-04-16T12:14:42.055Z,0.03
2019-04-16T12:19:44.970Z,1.91
2019-04-16T12:24:52.759Z,1.08
2019-04-16T12:30:01.793Z,2.47
2019-04-16T12:35:09.710Z,3.25
2019-04-16T12:40:20.039Z,3.95
2019-04-16T12:45:26.684Z,2.35
2019-04-16T12:50:35.473Z,0.72
2019-04-16T12:55:44.116Z,1.29
2019-04-16T13:00:52.834Z,2.08
2019-04-16T13:06:02.439Z,3.01
2019-04-16T13:11:09.767Z,1.69
2019-04-16T13:16:18.688Z,1.16
2019-04-16T13:21:27.430Z,1.35
2019-04-16T13:26:36.373Z,1.58
2019-04-16T13:31:45.104Z,0.15
2019-04-16T13:36:59.228Z,1.16
2019-04-16T13:42:02.120Z,2.11
2019-04-16T13:47:10.773Z,1.73
2019-04-16T13:52:20.502Z,0.40
2019-04-16T13:57:27.681Z,0.82
2019-04-16T14:02:36.418Z,2.84
2019-04-16T14:07:45.134Z,2.42
2019-04-16T14:12:53.882Z,0.67
2019-04-16T14:18:02.558Z,2.41
2019-04-16T14:23:11.384Z,1.47
2019-04-16T14:28:20.006Z,1.43
2019-04-16T14:33:28.781Z,3.26
2019-04-16T14:38:37.477Z,1.14
2019-04-16T14:43:46.228Z,3.06
2019-04-16T14:48:54.982Z,2.16
2019-04-16T14:54:03.990Z,1.24
2019-04-16T14:59:12.378Z,2.89
2019-04-16T15:04:21.118Z,3.29
2019-04-16T15:09:29.787Z,4.88
2019-04-16T15:14:38.502Z,3.51
2019-04-16T15:19:47.452Z,2.96
2019-04-16T15:24:56.184Z,4.09
2019-04-16T15:30:05.188Z,3.40
2019-04-16T15:35:14.904Z,4.22
2019-04-16T15:41:27.799Z,2.37
2019-04-16T15:46:41.006Z,3.35
2019-04-16T15:51:48.017Z,3.34
2019-04-16T15:56:52.937Z,2.88
2019-04-16T16:02:01.591Z,5.38
2019-04-16T16:07:10.294Z,3.46
2019-04-16T16:12:22.064Z,3.51
2019-04-16T16:17:27.220Z,4.98
2019-04-16T16:22:35.877Z,3.62
2019-04-16T16:27:46.963Z,2.34
2019-04-16T16:32:52.804Z,4.09
2019-04-16T16:38:01.527Z,4.14
2019-04-16T16:43:10.193Z,3.26
2019-04-16T16:49:33.242Z,1.38
2019-04-16T16:54:41.909Z,3.34
2019-04-16T16:59:50.658Z,1.21
2019-04-16T17:04:59.323Z,0.98
2019-04-16T17:10:08.062Z,2.35
2019-04-16T17:15:16.714Z,1.65
2019-04-16T17:20:25.446Z,3.27
2019-04-16T17:25:36.605Z,2.62
2019-04-16T17:30:42.370Z,1.97
2019-04-16T17:35:51.033Z,2.64
2019-04-16T17:41:00.268Z,1.26
2019-04-16T17:46:07.970Z,2.08
2019-04-16T17:51:16.746Z,1.90
2019-04-16T17:56:25.446Z,0.97
2019-04-16T18:01:34.182Z,1.19
2019-04-16T18:06:42.875Z,1.33
2019-04-16T18:11:52.524Z,0.65
2019-04-16T18:17:01.386Z,1.73
2019-04-16T18:22:09.933Z,1.27
2019-04-16T18:27:18.586Z,0.94
2019-04-16T18:32:27.637Z,1.61
2019-04-16T18:37:35.529Z,0.74
2019-04-16T18:42:44.632Z,0.63
2019-04-16T18:48:02.732Z,1.18
2019-04-16T18:53:01.630Z,0.73
2019-04-16T18:58:10.268Z,1.31
2019-04-16T19:03:19.035Z,0.88
2019-04-16T19:08:40.857Z,0.34
2019-04-16T19:13:35.971Z,0.27
2019-04-16T19:18:44.630Z,0.11
2019-04-16T19:23:53.366Z,0.19
2019-04-16T19:29:05.338Z,0.20
2019-04-16T19:34:10.681Z,0.18
2019-04-16T19:39:18.454Z,0.17
2019-04-16T19:44:27.186Z,0.41
2019-04-16T19:49:35.821Z,0.16
2019-04-16T19:54:44.541Z,0.13
2019-04-16T19:59:53.185Z,0.18
2019-04-16T20:05:01.910Z,0.19
2019-04-16T20:10:10.554Z,0.11
2019-04-16T20:15:19.616Z,0.13
2019-04-16T20:20:28.271Z,0.66
2019-04-16T20:25:37.014Z,0.16
2019-04-16T20:30:45.681Z,0.18
2019-04-16T20:35:54.385Z,0.13
2019-04-16T20:41:03.038Z,0.19
2019-04-16T20:46:11.766Z,0.20
2019-04-16T20:51:20.450Z,0.17
2019-04-16T20:56:29.205Z,0.13
2019-04-16T21:01:37.960Z,0.23
2019-04-16T21:06:46.589Z,1.31
2019-04-16T21:11:55.480Z,1.84
2019-04-16T21:17:07.184Z,1.40
2019-04-16T21:22:12.170Z,0.36
2019-04-16T21:27:20.925Z,0.36
2019-04-16T21:32:31.264Z,0.23
2019-04-16T21:37:37.845Z,0.11
2019-04-16T21:42:46.527Z,0.23
2019-04-16T21:47:56.101Z,0.13
2019-04-16T21:53:03.502Z,0.15
2019-04-16T21:58:14.544Z,0.24
2019-04-16T22:03:20.379Z,0.20
2019-04-16T22:08:29.726Z,0.46
2019-04-16T22:13:37.654Z,0.47
2019-04-16T22:18:46.376Z,0.47
2019-04-16T22:23:55.060Z,0.23
2019-04-16T22:29:03.817Z,0.69
2019-04-16T22:34:12.494Z,0.70
2019-04-16T22:39:21.242Z,0.28
2019-04-16T22:44:29.923Z,0.52
2019-04-16T22:49:38.635Z,0.66
2019-04-16T22:54:52.059Z,0.47
2019-04-16T22:59:55.540Z,0.53
2019-04-16T23:05:04.193Z,0.22
2019-04-16T23:10:12.978Z,0.27
2019-04-16T23:15:21.652Z,0.73
2019-04-16T23:20:36.124Z,0.68
2019-04-16T23:25:38.574Z,0.24
2019-04-16T23:30:47.900Z,0.15
2019-04-16T23:35:55.551Z,0.18
2019-04-16T23:41:04.578Z,0.20
2019-04-16T23:46:13.649Z,0.28
2019-04-16T23:51:22.680Z,0.47
2019-04-16T23:56:31.370Z,0.22
